Floweree, Montana
Current Conditions -  °F | °C
As of 7:56 PM on Saturday 25 Oct 2014 (Local Time) from KGFA Reporting Station
Clear Clear  
Wind Chill: 50°   Ceiling: Unl
Heat Index: 50°   Visibility: 10mi
Dew Point: 42°   Wind: 1mph
Humidity: 72%   Direction: 360°N
Pressure: 29.65"   Gusts: NA
Location:  47.73°N, 111.03°W
Report Text: KGFA 260156Z AUTO 36001KT 10SM CLR 10/05 A2965 RMK AO2 SLP059 T01010053
Loading
Personal Weather Stations






























Interactive Weather Map
Tropical Storm Tracking
New forecast layout! Learn more

10-Day Weather Forecast

Advertisements
Track Severe Weather on mobile